Time;durP1;ratioP1;P1;durP2;ratioP2;P2;SDS_P1;SDS_P2;PMS_P1;PMS_P2;Temp;Humidity;BMP_temperature;BMP_pressure;BME280_temperature;BME280_humidity;BME280_pressure;Samples;Min_cycle;Max_cycle;Signal;HPM_P1;HPM_P2
2023/09/29 00:00:18;;;;;;;14.73;7.00;;;15.60;73.20;;;;;;4880918;29;20065;-89
2023/09/29 00:02:47;;;;;;;14.07;6.50;;;15.60;73.40;;;;;;4890221;29;20049;-90
2023/09/29 00:05:18;;;;;;;12.13;6.53;;;15.60;73.30;;;;;;4863951;29;20077;-89
2023/09/29 00:07:46;;;;;;;14.55;6.45;;;15.70;73.20;;;;;;4888421;29;20044;-89
2023/09/29 00:10:17;;;;;;;12.33;6.70;;;15.70;73.10;;;;;;4874751;29;20353;-89
2023/09/29 00:12:45;;;;;;;12.75;6.32;;;15.70;73.00;;;;;;4872370;29;20048;-90
2023/09/29 00:15:13;;;;;;;12.98;6.68;;;15.60;73.20;;;;;;4896010;29;20117;-89
2023/09/29 00:17:40;;;;;;;13.43;6.10;;;15.60;73.40;;;;;;4894798;29;20065;-89
2023/09/29 00:20:19;;;;;;;15.20;6.75;;;15.60;73.60;;;;;;4882876;29;20101;-89
2023/09/29 00:22:46;;;;;;;14.47;6.73;;;15.50;73.40;;;;;;4872128;29;20499;-89
2023/09/29 00:25:14;;;;;;;13.18;6.38;;;15.50;73.80;;;;;;4886443;29;20099;-89
2023/09/29 00:27:41;;;;;;;14.35;6.65;;;15.40;74.00;;;;;;4877617;29;20587;-89
2023/09/29 00:30:09;;;;;;;14.52;6.38;;;15.30;74.30;;;;;;4889161;29;20064;-89
2023/09/29 00:32:36;;;;;;;14.18;6.47;;;15.30;74.30;;;;;;4872806;29;20053;-89
2023/09/29 00:35:05;;;;;;;12.63;6.57;;;15.20;74.50;;;;;;4873033;29;20053;-90
2023/09/29 00:37:33;;;;;;;15.35;7.40;;;15.20;74.70;;;;;;4900838;29;20055;-89
2023/09/29 00:40:00;;;;;;;15.52;6.93;;;15.10;74.80;;;;;;4870857;29;20053;-88
2023/09/29 00:42:27;;;;;;;14.80;7.20;;;15.10;75.00;;;;;;4888979;29;20051;-89
2023/09/29 00:44:55;;;;;;;13.02;7.03;;;15.10;75.10;;;;;;4867783;29;20136;-89
2023/09/29 00:47:22;;;;;;;14.30;6.50;;;15.00;75.10;;;;;;4888146;29;20109;-90
2023/09/29 00:49:49;;;;;;;12.00;6.40;;;15.10;75.10;;;;;;4890612;29;20097;-89
2023/09/29 00:52:17;;;;;;;14.95;6.97;;;15.10;75.10;;;;;;4890404;29;20045;-89
2023/09/29 00:54:45;;;;;;;12.02;6.70;;;15.00;75.20;;;;;;4875556;29;20521;-89
2023/09/29 00:57:13;;;;;;;13.93;6.80;;;15.00;75.20;;;;;;4874578;29;20053;-89
2023/09/29 00:59:41;;;;;;;14.23;6.60;;;15.00;75.10;;;;;;4889656;29;20057;-90
2023/09/29 01:02:09;;;;;;;13.23;6.43;;;15.00;75.30;;;;;;4889686;29;20060;-89
2023/09/29 01:04:38;;;;;;;13.65;6.70;;;15.00;75.30;;;;;;4874029;29;20057;-89
2023/09/29 01:07:07;;;;;;;12.60;6.68;;;15.00;75.20;;;;;;4870240;29;20491;-89
2023/09/29 01:09:34;;;;;;;13.75;6.70;;;15.00;75.20;;;;;;4885360;29;20053;-90
2023/09/29 01:12:03;;;;;;;12.70;6.47;;;15.00;75.20;;;;;;4873492;29;20045;-90
2023/09/29 01:14:30;;;;;;;13.85;7.05;;;15.00;75.10;;;;;;4873248;29;20061;-88
2023/09/29 01:16:58;;;;;;;14.07;7.00;;;15.00;75.00;;;;;;4876217;29;20060;-89
2023/09/29 01:19:25;;;;;;;15.35;7.22;;;15.10;74.90;;;;;;4887722;29;20056;-89
2023/09/29 01:21:52;;;;;;;13.07;6.78;;;15.10;74.80;;;;;;4880839;29;20061;-89
2023/09/29 01:24:21;;;;;;;13.70;6.67;;;15.10;74.70;;;;;;4889652;29;20564;-90
2023/09/29 01:26:49;;;;;;;13.52;6.68;;;15.10;74.80;;;;;;4872527;29;20056;-89
2023/09/29 01:29:16;;;;;;;13.50;6.43;;;15.00;74.80;;;;;;4865597;29;20173;-90
2023/09/29 01:31:44;;;;;;;13.27;7.00;;;15.10;74.60;;;;;;4865748;29;20496;-90
2023/09/29 01:34:12;;;;;;;13.35;7.15;;;15.10;74.60;;;;;;4891344;29;20052;-89
2023/09/29 01:36:39;;;;;;;13.43;7.00;;;15.00;74.70;;;;;;4872023;29;20086;-89
2023/09/29 01:39:06;;;;;;;13.02;6.82;;;15.00;74.60;;;;;;4874663;29;20116;-89
2023/09/29 01:41:33;;;;;;;13.18;6.97;;;15.10;74.40;;;;;;4871802;29;20056;-89
2023/09/29 01:44:01;;;;;;;14.30;7.00;;;15.00;74.40;;;;;;4889562;29;20057;-89
2023/09/29 01:46:29;;;;;;;14.35;6.80;;;15.00;74.70;;;;;;4874448;29;20055;-89
2023/09/29 01:48:56;;;;;;;12.90;7.20;;;15.00;74.80;;;;;;4875864;29;20420;-89
2023/09/29 01:51:28;;;;;;;12.07;6.95;;;15.00;74.90;;;;;;4882753;29;20380;-88
2023/09/29 01:53:55;;;;;;;13.18;6.55;;;14.90;75.00;;;;;;4878388;29;20075;-89
2023/09/29 01:56:23;;;;;;;14.77;7.28;;;14.90;74.90;;;;;;4871546;29;20083;-89
2023/09/29 01:58:51;;;;;;;11.68;6.80;;;14.90;75.00;;;;;;4873977;29;20579;-89
2023/09/29 02:01:18;;;;;;;13.00;6.57;;;14.90;75.00;;;;;;4870470;29;20053;-89
2023/09/29 02:03:48;;;;;;;13.93;6.93;;;14.90;74.90;;;;;;4888100;29;20060;-89
2023/09/29 02:06:15;;;;;;;13.10;7.15;;;14.90;74.90;;;;;;4879350;29;20052;-89
2023/09/29 02:08:44;;;;;;;13.10;7.03;;;14.90;74.80;;;;;;4882034;29;20044;-90
2023/09/29 02:11:12;;;;;;;15.15;6.95;;;14.80;74.90;;;;;;4873301;29;20049;-89
2023/09/29 02:13:39;;;;;;;14.30;6.97;;;14.80;75.00;;;;;;4880869;29;20063;-89
2023/09/29 02:16:11;;;;;;;16.58;7.82;;;14.80;75.10;;;;;;4874012;29;20049;-89
2023/09/29 02:18:38;;;;;;;12.93;6.95;;;14.80;75.10;;;;;;4871970;29;20063;-89
2023/09/29 02:21:08;;;;;;;13.32;6.60;;;14.70;75.20;;;;;;4870270;29;20068;-89
2023/09/29 02:23:36;;;;;;;13.20;6.88;;;14.70;75.20;;;;;;4880529;29;20153;-89
2023/09/29 02:26:04;;;;;;;13.17;6.53;;;14.60;75.20;;;;;;4871136;29;20465;-89
2023/09/29 02:28:31;;;;;;;14.52;6.82;;;14.60;75.40;;;;;;4898829;29;20055;-90
2023/09/29 02:31:00;;;;;;;12.45;6.53;;;14.60;75.50;;;;;;4869071;29;20566;-89
2023/09/29 02:33:28;;;;;;;12.13;6.85;;;14.60;75.50;;;;;;4869001;29;20068;-89
2023/09/29 02:35:56;;;;;;;14.40;6.72;;;14.60;75.40;;;;;;4888185;29;20049;-89
2023/09/29 02:38:24;;;;;;;12.33;6.60;;;14.60;75.50;;;;;;4868686;29;20064;-90
2023/09/29 02:40:54;;;;;;;12.50;6.78;;;14.60;75.40;;;;;;4888947;29;20048;-89
2023/09/29 02:43:21;;;;;;;13.55;6.43;;;14.60;75.30;;;;;;4893292;29;20434;-90
2023/09/29 02:45:48;;;;;;;13.80;6.30;;;14.60;75.30;;;;;;4886706;29;20048;-89
2023/09/29 02:48:15;;;;;;;11.52;6.47;;;14.60;75.20;;;;;;4876390;29;20529;-89
2023/09/29 02:50:43;;;;;;;13.77;6.43;;;14.60;75.40;;;;;;4892818;29;20473;-89
2023/09/29 02:53:10;;;;;;;16.00;6.70;;;14.60;75.30;;;;;;4877938;29;20456;-89
2023/09/29 02:55:37;;;;;;;15.80;6.35;;;14.60;75.30;;;;;;4878517;29;20053;-89
2023/09/29 02:58:04;;;;;;;12.10;6.25;;;14.60;75.20;;;;;;4880258;29;20049;-89
2023/09/29 03:00:31;;;;;;;13.02;6.60;;;14.50;75.30;;;;;;4883790;29;20500;-89
2023/09/29 03:03:00;;;;;;;13.67;7.20;;;14.50;75.50;;;;;;4875645;29;20053;-89
2023/09/29 03:05:27;;;;;;;11.60;6.57;;;14.50;75.50;;;;;;4894880;29;20056;-88
2023/09/29 03:07:57;;;;;;;13.35;6.93;;;14.50;75.50;;;;;;4884334;29;20053;-89
2023/09/29 03:10:28;;;;;;;12.48;6.32;;;14.50;75.40;;;;;;4869023;29;20057;-90
2023/09/29 03:12:56;;;;;;;12.02;6.40;;;14.50;75.70;;;;;;4887997;29;20056;-89
2023/09/29 03:15:25;;;;;;;12.93;6.70;;;14.40;75.70;;;;;;4882430;29;20661;-88
2023/09/29 03:17:55;;;;;;;12.52;6.53;;;14.40;75.80;;;;;;4886112;29;20415;-90
2023/09/29 03:20:25;;;;;;;11.65;6.50;;;14.30;75.90;;;;;;4886980;29;20502;-89
2023/09/29 03:22:52;;;;;;;12.95;6.50;;;14.30;76.00;;;;;;4864513;29;20058;-90
2023/09/29 03:25:20;;;;;;;14.32;6.82;;;14.20;76.10;;;;;;4874201;29;20055;-90
2023/09/29 03:27:48;;;;;;;16.33;7.37;;;14.30;76.10;;;;;;4876160;29;20076;-90
2023/09/29 03:30:15;;;;;;;14.55;6.78;;;14.20;76.10;;;;;;4897899;29;20056;-90
2023/09/29 03:32:43;;;;;;;14.55;6.68;;;14.20;76.10;;;;;;4884132;29;20500;-89
2023/09/29 03:35:13;;;;;;;12.27;6.47;;;14.20;76.10;;;;;;4879970;29;20079;-89
2023/09/29 03:37:43;;;;;;;13.80;6.38;;;14.20;76.20;;;;;;4886369;29;20061;-89
2023/09/29 03:40:11;;;;;;;13.47;6.27;;;14.20;76.10;;;;;;4864488;29;20532;-90
2023/09/29 03:42:41;;;;;;;14.60;6.50;;;14.20;76.20;;;;;;4877086;29;20061;-89
2023/09/29 03:45:11;;;;;;;13.85;6.60;;;14.20;76.30;;;;;;4893341;29;20486;-90
2023/09/29 03:47:38;;;;;;;13.02;6.75;;;14.10;76.30;;;;;;4870301;29;20057;-89
2023/09/29 03:50:11;;;;;;;15.52;6.80;;;14.20;76.30;;;;;;4871606;29;20515;-89
2023/09/29 03:52:41;;;;;;;16.97;6.97;;;14.20;76.20;;;;;;4892547;29;20044;-90
2023/09/29 03:55:12;;;;;;;12.68;6.47;;;14.10;76.30;;;;;;4881264;29;20063;-90
2023/09/29 03:57:41;;;;;;;11.63;7.03;;;14.20;76.40;;;;;;4881252;29;20104;-89
2023/09/29 04:00:12;;;;;;;11.35;6.13;;;14.10;76.40;;;;;;4881707;29;20499;-90
2023/09/29 04:02:40;;;;;;;10.13;5.75;;;14.10;76.50;;;;;;4882633;29;20423;-89
2023/09/29 04:05:09;;;;;;;13.43;6.63;;;14.10;76.40;;;;;;4868024;29;20414;-90
2023/09/29 04:07:39;;;;;;;12.52;7.30;;;14.10;76.60;;;;;;4877635;29;20420;-90
2023/09/29 04:10:15;;;;;;;12.25;6.95;;;14.10;76.60;;;;;;4877790;29;20057;-89
2023/09/29 04:12:47;;;;;;;15.05;6.30;;;14.10;76.60;;;;;;4885238;29;20053;-89
2023/09/29 04:15:15;;;;;;;11.90;6.70;;;14.10;76.70;;;;;;4883627;29;20065;-89
2023/09/29 04:17:42;;;;;;;13.93;6.53;;;14.00;76.80;;;;;;4877328;29;20084;-89
2023/09/29 04:20:11;;;;;;;14.57;6.45;;;14.00;76.70;;;;;;4874655;29;20048;-90
2023/09/29 04:22:38;;;;;;;16.02;7.13;;;14.10;76.70;;;;;;4887523;29;20106;-90
2023/09/29 04:25:12;;;;;;;12.48;6.03;;;14.10;76.60;;;;;;4895812;29;20067;-89
2023/09/29 04:27:40;;;;;;;16.33;6.45;;;14.00;76.60;;;;;;4890570;29;20044;-90
2023/09/29 04:30:08;;;;;;;12.83;6.13;;;14.10;76.60;;;;;;4888977;29;20084;-89
2023/09/29 04:32:36;;;;;;;10.77;6.18;;;14.10;76.50;;;;;;4900741;29;20057;-90
2023/09/29 04:35:05;;;;;;;12.63;6.50;;;14.10;76.50;;;;;;4873043;29;20571;-89
2023/09/29 04:37:32;;;;;;;14.20;6.50;;;14.10;76.50;;;;;;4867873;29;20076;-89
2023/09/29 04:39:59;;;;;;;12.00;5.97;;;14.10;76.60;;;;;;4885479;29;20056;-90
2023/09/29 04:42:26;;;;;;;12.20;6.37;;;14.10;76.60;;;;;;4883869;29;20060;-90
2023/09/29 04:44:53;;;;;;;13.73;7.20;;;14.00;76.70;;;;;;4875594;29;20420;-90
2023/09/29 04:47:22;;;;;;;12.05;6.18;;;14.00;76.90;;;;;;4867760;29;20057;-89
2023/09/29 04:49:50;;;;;;;14.35;6.53;;;14.00;76.70;;;;;;4875260;29;20072;-91
2023/09/29 04:52:17;;;;;;;12.65;6.82;;;14.00;76.60;;;;;;4897403;29;20056;-89
2023/09/29 04:54:44;;;;;;;12.83;6.77;;;14.00;76.80;;;;;;4887851;29;20057;-90
2023/09/29 04:57:11;;;;;;;11.95;6.45;;;14.00;76.70;;;;;;4897451;29;20155;-89
2023/09/29 04:59:38;;;;;;;13.00;6.20;;;14.00;76.80;;;;;;4887214;29;20061;-89
2023/09/29 05:02:06;;;;;;;11.45;6.13;;;14.00;76.80;;;;;;4881060;29;20519;-89
2023/09/29 05:04:33;;;;;;;14.27;6.72;;;14.00;76.80;;;;;;4881922;29;20060;-89
2023/09/29 05:07:00;;;;;;;12.67;6.57;;;14.00;76.80;;;;;;4884852;29;20148;-89
2023/09/29 05:09:27;;;;;;;12.07;5.95;;;14.00;76.80;;;;;;4884468;29;20530;-90
2023/09/29 05:11:54;;;;;;;14.43;6.70;;;14.00;76.70;;;;;;4878701;29;20049;-90
2023/09/29 05:14:21;;;;;;;17.25;6.53;;;14.00;76.40;;;;;;4893505;29;20400;-90
2023/09/29 05:16:49;;;;;;;15.73;6.70;;;14.10;76.60;;;;;;4891221;29;20139;-90
2023/09/29 05:19:17;;;;;;;11.47;6.27;;;14.10;76.40;;;;;;4879543;29;20041;-90
2023/09/29 05:21:44;;;;;;;14.23;6.25;;;14.10;76.40;;;;;;4898631;29;20510;-89
2023/09/29 05:24:11;;;;;;;11.88;6.38;;;14.10;76.30;;;;;;4878023;29;20108;-90
2023/09/29 05:26:38;;;;;;;14.45;6.53;;;14.10;76.20;;;;;;4869162;29;20053;-91
2023/09/29 05:29:05;;;;;;;13.50;5.97;;;14.10;76.10;;;;;;4872683;29;20100;-88
2023/09/29 05:31:32;;;;;;;14.10;7.37;;;14.10;76.00;;;;;;4885655;29;20145;-89
2023/09/29 05:33:59;;;;;;;14.60;6.28;;;14.10;76.10;;;;;;4879969;29;20055;-90
2023/09/29 05:36:27;;;;;;;12.82;6.57;;;14.20;76.10;;;;;;4888814;29;20491;-89
2023/09/29 05:38:54;;;;;;;12.25;6.60;;;14.10;76.20;;;;;;4877367;29;20056;-88
2023/09/29 05:41:22;;;;;;;13.80;6.43;;;14.10;76.30;;;;;;4872235;29;20049;-90
2023/09/29 05:43:49;;;;;;;11.67;6.23;;;14.20;76.20;;;;;;4891513;29;20529;-88
2023/09/29 05:46:16;;;;;;;11.80;5.93;;;14.20;75.90;;;;;;4884333;29;20053;-90
2023/09/29 05:48:43;;;;;;;12.05;6.22;;;14.20;76.20;;;;;;4870638;29;20049;-89
2023/09/29 05:51:11;;;;;;;12.82;6.43;;;14.20;76.30;;;;;;4865430;29;20420;-90
2023/09/29 05:53:38;;;;;;;20.10;7.10;;;14.20;76.00;;;;;;4866704;29;20049;-89
2023/09/29 05:56:08;;;;;;;13.23;6.47;;;14.30;75.90;;;;;;4881517;29;20085;-90
2023/09/29 05:58:39;;;;;;;13.40;6.68;;;14.30;75.90;;;;;;4881637;29;20067;-89
2023/09/29 06:01:11;;;;;;;13.25;6.47;;;14.30;75.90;;;;;;4874115;29;20057;-89
2023/09/29 06:03:45;;;;;;;12.43;6.70;;;14.30;76.10;;;;;;4880977;29;20411;-90
2023/09/29 06:06:31;;;;;;;13.98;6.63;;;14.30;75.90;;;;;;4867420;29;20057;-90
2023/09/29 06:08:59;;;;;;;12.20;5.73;;;14.40;76.00;;;;;;4864985;29;20503;-90
2023/09/29 06:11:26;;;;;;;12.23;6.20;;;14.50;75.70;;;;;;4856664;29;20054;-90
2023/09/29 06:13:53;;;;;;;12.60;6.18;;;14.50;75.70;;;;;;4846520;29;20059;-90
2023/09/29 06:16:20;;;;;;;11.63;6.15;;;14.60;75.50;;;;;;4876110;29;20144;-90
2023/09/29 06:18:47;;;;;;;11.15;5.80;;;14.60;75.20;;;;;;4849589;29;20141;-90
2023/09/29 06:21:16;;;;;;;12.47;6.67;;;14.70;75.20;;;;;;4858834;29;20076;-89
2023/09/29 06:23:43;;;;;;;10.43;6.15;;;14.80;75.20;;;;;;4879262;29;20071;-89
2023/09/29 06:26:11;;;;;;;14.02;6.20;;;14.80;75.00;;;;;;4861950;29;20080;-90
2023/09/29 06:28:38;;;;;;;11.30;5.95;;;15.00;74.60;;;;;;4880575;29;20083;-91
2023/09/29 06:31:06;;;;;;;11.65;6.13;;;15.00;74.70;;;;;;4864441;29;20113;-91
2023/09/29 06:33:33;;;;;;;12.77;5.90;;;15.20;74.80;;;;;;4864812;29;20113;-91
2023/09/29 06:36:00;;;;;;;12.35;6.10;;;15.30;74.30;;;;;;4853777;29;20061;-90
2023/09/29 06:38:29;;;;;;;12.77;6.05;;;15.50;74.30;;;;;;4860621;29;20062;-95
2023/09/29 06:40:58;;;;;;;11.32;6.25;;;15.50;73.90;;;;;;4866796;29;20064;-95
2023/09/29 06:43:28;;;;;;;13.32;5.85;;;15.70;73.90;;;;;;4865613;29;20056;-96
2023/09/29 06:49:56;;;;;;;14.32;6.20;;;16.00;73.00;;;;;;4881780;29;20036;-95
2023/09/29 06:52:25;;;;;;;12.88;6.20;;;16.10;72.60;;;;;;4864968;29;20415;-95
2023/09/29 06:54:53;;;;;;;10.57;5.90;;;16.20;72.80;;;;;;4867517;29;20419;-95
2023/09/29 06:57:20;;;;;;;11.38;5.75;;;16.30;72.50;;;;;;4866032;29;20496;-95
2023/09/29 06:59:48;;;;;;;15.43;5.83;;;16.30;72.20;;;;;;4868773;29;20057;-96
2023/09/29 07:02:16;;;;;;;13.45;6.35;;;16.50;72.00;;;;;;4870576;29;20057;-96
2023/09/29 07:04:47;;;;;;;10.73;5.63;;;16.60;71.50;;;;;;4875379;29;20067;-96
2023/09/29 07:07:17;;;;;;;10.60;5.15;;;16.70;71.30;;;;;;4889139;29;20103;-96
2023/09/29 07:09:45;;;;;;;10.90;5.60;;;16.80;70.80;;;;;;4889965;29;20048;-96
2023/09/29 07:12:12;;;;;;;14.77;5.93;;;16.90;70.70;;;;;;4904171;29;20154;-96
2023/09/29 07:14:40;;;;;;;14.32;6.60;;;17.00;70.10;;;;;;4890968;29;20094;-96
2023/09/29 07:17:07;;;;;;;12.93;5.90;;;17.10;70.20;;;;;;4906450;29;20083;-96
2023/09/29 07:19:35;;;;;;;11.45;6.00;;;17.30;70.20;;;;;;4907515;29;20055;-96
2023/09/29 07:22:18;;;;;;;11.43;5.82;;;17.40;70.00;;;;;;4908305;29;20119;-96
2023/09/29 07:24:46;;;;;;;9.97;5.50;;;17.50;69.50;;;;;;4894224;29;20052;-96
2023/09/29 07:27:13;;;;;;;12.73;6.18;;;17.60;69.90;;;;;;4893889;29;20052;-96
2023/09/29 07:29:49;;;;;;;12.75;6.18;;;17.70;69.80;;;;;;4889692;29;20072;-96
2023/09/29 07:41:14;;;;;;;9.50;5.47;;;18.10;69.70;;;;;;4863787;29;20056;-95
2023/09/29 07:43:41;;;;;;;14.52;5.63;;;18.40;68.90;;;;;;4869128;29;20067;-93
2023/09/29 07:50:58;;;;;;;11.43;5.38;;;18.70;67.90;;;;;;4898084;29;20622;-96
2023/09/29 08:00:44;;;;;;;11.68;5.68;;;19.10;67.50;;;;;;5551244;23;20063;-96
2023/09/29 08:32:11;;;;;;;10.33;5.47;;;20.50;62.00;;;;;;5191213;23;20052;-96
2023/09/29 08:34:43;;;;;;;13.07;5.60;;;20.60;62.50;;;;;;4889735;29;20056;-96
2023/09/29 08:42:15;;;;;;;11.43;5.55;;;20.80;62.80;;;;;;4878825;29;20060;-96
2023/09/29 08:44:49;;;;;;;10.65;5.18;;;21.00;62.80;;;;;;4893720;29;20049;-96
2023/09/29 08:51:53;;;;;;;10.68;5.25;;;21.20;60.20;;;;;;4901667;29;20049;-96
2023/09/29 08:54:24;;;;;;;10.38;5.93;;;21.30;60.70;;;;;;4886877;29;20151;-96
2023/09/29 08:56:58;;;;;;;11.00;5.75;;;21.50;60.00;;;;;;4887101;29;20108;-96
2023/09/29 08:59:28;;;;;;;13.38;5.13;;;21.50;59.30;;;;;;4887417;29;20059;-96
2023/09/29 09:01:58;;;;;;;11.50;5.23;;;21.70;59.50;;;;;;4889691;29;20510;-96
2023/09/29 09:09:05;;;;;;;12.35;5.20;;;21.90;57.30;;;;;;4906074;29;20089;-96
2023/09/29 09:11:45;;;;;;;10.32;5.15;;;22.00;58.50;;;;;;4886296;29;20075;-95
2023/09/29 09:14:13;;;;;;;10.77;4.80;;;22.00;57.00;;;;;;4885338;29;20066;-96
2023/09/29 09:16:41;;;;;;;10.03;4.90;;;22.10;57.00;;;;;;4900978;29;20057;-96
2023/09/29 09:19:15;;;;;;;16.98;5.68;;;22.10;57.90;;;;;;4900999;29;20489;-96
2023/09/29 09:21:46;;;;;;;10.13;5.70;;;22.20;59.40;;;;;;4885915;29;20053;-96
2023/09/29 09:24:32;;;;;;;12.02;4.95;;;22.30;58.70;;;;;;4903097;29;20495;-96
2023/09/29 09:27:05;;;;;;;10.68;5.10;;;22.50;58.10;;;;;;4886390;29;20048;-96
2023/09/29 09:29:40;;;;;;;11.40;5.37;;;22.50;57.50;;;;;;4894006;29;20053;-96
2023/09/29 09:32:10;;;;;;;8.63;4.38;;;22.60;57.10;;;;;;4889930;29;20048;-96
2023/09/29 09:34:39;;;;;;;13.02;5.10;;;22.60;56.40;;;;;;4903713;29;20530;-96
2023/09/29 09:37:07;;;;;;;13.45;4.30;;;22.80;55.10;;;;;;4889510;29;20056;-96
2023/09/29 09:39:48;;;;;;;10.60;5.25;;;22.90;55.00;;;;;;4887157;29;20054;-96
2023/09/29 09:42:24;;;;;;;13.17;5.10;;;22.90;54.20;;;;;;4900008;29;20083;-96
2023/09/29 09:44:57;;;;;;;10.93;4.80;;;22.90;54.20;;;;;;4903524;29;20053;-96
2023/09/29 09:47:27;;;;;;;12.35;5.10;;;23.00;55.90;;;;;;4906302;29;20048;-96
2023/09/29 09:49:57;;;;;;;13.15;5.30;;;23.00;53.30;;;;;;4905719;29;20049;-96
2023/09/29 09:52:30;;;;;;;15.10;5.15;;;23.10;53.50;;;;;;4901548;29;20049;-96
2023/09/29 09:55:04;;;;;;;10.73;4.67;;;23.10;54.80;;;;;;4887077;29;20546;-92
2023/09/29 09:57:38;;;;;;;11.15;5.40;;;23.20;53.50;;;;;;4901616;29;20060;-94
2023/09/29 10:00:10;;;;;;;10.48;4.65;;;23.20;53.40;;;;;;4884491;29;20100;-90
2023/09/29 10:02:46;;;;;;;11.30;5.13;;;23.30;53.40;;;;;;4899312;29;20068;-90
2023/09/29 10:05:22;;;;;;;12.82;5.00;;;23.30;54.20;;;;;;4880422;29;20057;-90
2023/09/29 10:07:51;;;;;;;9.90;5.50;;;23.40;54.90;;;;;;4880576;29;20504;-90
2023/09/29 10:10:34;;;;;;;10.90;4.45;;;23.50;54.70;;;;;;4865265;29;20480;-90
2023/09/29 10:13:05;;;;;;;13.55;4.97;;;23.50;53.40;;;;;;4880564;29;20091;-90
2023/09/29 10:15:33;;;;;;;10.70;4.70;;;23.60;54.20;;;;;;4880587;29;20420;-90
2023/09/29 10:18:03;;;;;;;10.98;5.63;;;23.70;54.70;;;;;;4868061;29;20057;-90
2023/09/29 10:20:33;;;;;;;10.00;4.60;;;23.70;53.20;;;;;;4880737;29;20053;-90
2023/09/29 10:23:08;;;;;;;13.70;5.03;;;23.70;54.10;;;;;;4880526;29;20088;-90
2023/09/29 10:25:37;;;;;;;8.93;4.60;;;23.80;54.30;;;;;;4884855;29;20048;-90
2023/09/29 10:28:06;;;;;;;11.32;4.90;;;23.80;54.40;;;;;;4883484;29;20055;-91
2023/09/29 10:34:34;;;;;;;11.07;4.90;;;23.90;52.80;;;;;;4881203;29;20476;-91
2023/09/29 10:37:02;;;;;;;12.05;4.70;;;24.00;52.80;;;;;;4879724;29;20048;-94
2023/09/29 10:39:36;;;;;;;9.27;4.30;;;24.10;52.90;;;;;;4879941;29;20454;-93
2023/09/29 10:42:13;;;;;;;10.88;4.70;;;24.10;52.80;;;;;;4879815;29;20152;-91
2023/09/29 10:44:52;;;;;;;11.70;4.68;;;24.10;52.00;;;;;;4884562;29;20053;-96
2023/09/29 10:47:37;;;;;;;9.07;4.47;;;24.20;52.00;;;;;;4889305;29;20583;-95
2023/09/29 10:50:11;;;;;;;12.30;4.10;;;24.30;48.20;;;;;;4868938;29;20056;-96
2023/09/29 10:52:40;;;;;;;10.75;4.18;;;24.30;47.70;;;;;;4882670;29;20101;-95
2023/09/29 10:55:17;;;;;;;9.02;4.15;;;24.30;48.70;;;;;;4868948;29;20499;-96
2023/09/29 10:58:04;;;;;;;9.23;4.00;;;24.30;47.20;;;;;;4884904;29;20076;-96
2023/09/29 11:00:49;;;;;;;9.63;3.90;;;24.30;46.40;;;;;;4884396;29;20057;-95
2023/09/29 11:03:26;;;;;;;11.57;4.25;;;24.40;46.80;;;;;;4883104;29;20095;-96
2023/09/29 11:06:08;;;;;;;9.68;4.28;;;24.50;47.20;;;;;;4868296;29;20124;-96
2023/09/29 11:08:42;;;;;;;8.95;4.13;;;24.60;46.60;;;;;;4884399;29;20041;-95
2023/09/29 11:11:10;;;;;;;13.98;4.43;;;24.60;45.80;;;;;;4884549;29;20055;-95
2023/09/29 11:13:38;;;;;;;10.70;4.30;;;24.70;47.40;;;;;;4866000;29;20049;-95
2023/09/29 11:16:18;;;;;;;12.50;4.28;;;24.70;46.30;;;;;;4863744;29;20080;-94
2023/09/29 11:18:49;;;;;;;11.32;3.95;;;24.80;45.90;;;;;;4879380;29;20053;-95
2023/09/29 11:21:19;;;;;;;11.02;4.10;;;24.90;46.10;;;;;;4867568;29;20633;-95
2023/09/29 11:23:49;;;;;;;8.75;4.50;;;24.80;44.60;;;;;;4999276;23;20057;-96
2023/09/29 11:26:17;;;;;;;8.70;4.20;;;24.80;45.10;;;;;;4888290;29;20086;-96
2023/09/29 11:28:51;;;;;;;11.85;4.40;;;24.90;45.30;;;;;;4900636;29;20052;-95
2023/09/29 11:31:25;;;;;;;10.43;4.18;;;25.00;44.50;;;;;;4900839;29;20099;-92
2023/09/29 11:33:56;;;;;;;9.95;4.47;;;25.00;44.20;;;;;;4887701;29;20064;-92
2023/09/29 11:36:27;;;;;;;12.13;4.10;;;25.00;45.00;;;;;;4879163;29;20091;-92
2023/09/29 11:38:55;;;;;;;8.77;4.00;;;25.10;45.50;;;;;;4879353;29;20505;-91
2023/09/29 11:41:22;;;;;;;10.27;4.30;;;25.10;45.10;;;;;;4863529;29;20065;-92
2023/09/29 11:43:50;;;;;;;14.25;4.97;;;25.10;45.20;;;;;;4884855;29;20048;-89
2023/09/29 11:46:18;;;;;;;11.50;4.35;;;25.20;43.90;;;;;;4882172;29;20049;-94
2023/09/29 11:48:46;;;;;;;9.27;3.97;;;25.20;44.80;;;;;;4897806;29;20415;-95
2023/09/29 11:51:16;;;;;;;10.40;4.20;;;25.20;43.30;;;;;;4882617;29;20515;-95
2023/09/29 11:53:44;;;;;;;194.68;13.90;;;25.30;44.20;;;;;;4897697;29;20059;-95
2023/09/29 11:56:14;;;;;;;22.13;5.10;;;25.40;43.80;;;;;;4882659;29;20080;-96
2023/09/29 11:58:42;;;;;;;9.48;3.47;;;25.40;44.40;;;;;;4898355;29;20089;-95
2023/09/29 12:01:13;;;;;;;12.20;4.15;;;25.40;42.60;;;;;;4898694;29;20545;-96
2023/09/29 12:03:42;;;;;;;8.70;4.07;;;25.30;42.10;;;;;;4883149;29;20063;-96
2023/09/29 12:06:10;;;;;;;10.68;3.95;;;25.20;42.50;;;;;;4883150;29;20060;-95
2023/09/29 12:08:37;;;;;;;9.93;4.25;;;25.20;41.80;;;;;;4882246;29;20055;-95
2023/09/29 12:11:07;;;;;;;12.13;4.10;;;25.30;43.10;;;;;;4897747;29;20080;-96
2023/09/29 12:13:39;;;;;;;9.05;4.28;;;25.30;42.10;;;;;;4898075;29;20120;-96
2023/09/29 12:16:10;;;;;;;13.60;4.83;;;25.40;42.90;;;;;;4901414;29;20060;-96
2023/09/29 12:18:39;;;;;;;14.48;4.40;;;25.40;43.00;;;;;;4901142;29;20609;-96
2023/09/29 12:21:08;;;;;;;10.90;3.95;;;25.50;43.10;;;;;;4886007;29;20048;-96
2023/09/29 12:24:05;;;;;;;10.90;3.78;;;25.40;42.60;;;;;;4902295;29;20090;-96
2023/09/29 12:26:49;;;;;;;9.82;4.25;;;25.50;41.70;;;;;;4887726;29;20048;-95
2023/09/29 12:29:17;;;;;;;10.67;3.90;;;25.40;43.40;;;;;;4901397;29;20072;-96
2023/09/29 12:31:44;;;;;;;8.93;3.88;;;25.50;42.80;;;;;;4885496;29;20108;-95
2023/09/29 12:34:11;;;;;;;9.15;4.13;;;25.50;42.70;;;;;;4885627;29;20044;-95
2023/09/29 12:36:38;;;;;;;10.93;4.20;;;25.60;44.00;;;;;;4900870;29;20060;-96
2023/09/29 12:39:09;;;;;;;9.45;4.00;;;25.50;42.30;;;;;;4885959;29;20535;-95
2023/09/29 12:41:37;;;;;;;8.83;3.90;;;25.50;42.50;;;;;;4900936;29;20065;-96
2023/09/29 12:44:05;;;;;;;8.07;4.05;;;25.60;43.50;;;;;;4901026;29;20152;-95
2023/09/29 12:46:34;;;;;;;11.30;4.53;;;25.60;42.40;;;;;;4901232;29;20048;-96
2023/09/29 12:49:03;;;;;;;9.02;4.18;;;25.60;42.40;;;;;;4900817;29;20049;-96
2023/09/29 12:51:33;;;;;;;9.20;4.10;;;25.60;42.70;;;;;;4900772;29;20057;-96
2023/09/29 12:54:15;;;;;;;9.10;4.17;;;25.60;42.00;;;;;;4887422;29;20052;-96
2023/09/29 12:56:47;;;;;;;8.45;3.88;;;25.60;43.00;;;;;;4900860;29;20072;-95
2023/09/29 12:59:29;;;;;;;9.07;4.40;;;25.70;43.10;;;;;;4901205;29;20052;-95
2023/09/29 13:01:56;;;;;;;8.30;4.13;;;25.80;42.50;;;;;;4885168;29;20060;-95
2023/09/29 13:04:28;;;;;;;8.65;3.97;;;25.80;41.90;;;;;;4900386;29;20057;-96
2023/09/29 13:06:58;;;;;;;10.97;4.50;;;25.90;41.80;;;;;;4900195;29;20400;-96
2023/09/29 13:09:26;;;;;;;11.70;4.20;;;25.90;41.80;;;;;;4884985;29;20079;-95
2023/09/29 13:11:56;;;;;;;11.40;3.80;;;25.80;42.00;;;;;;4900490;29;20059;-95
2023/09/29 13:14:24;;;;;;;9.27;3.88;;;25.80;42.60;;;;;;4900048;29;20059;-96
2023/09/29 13:16:52;;;;;;;8.98;4.18;;;25.90;42.50;;;;;;4900463;29;20063;-96
2023/09/29 13:19:20;;;;;;;7.50;3.67;;;25.80;41.20;;;;;;4900618;29;20052;-91
2023/09/29 13:21:51;;;;;;;9.07;3.60;;;25.80;41.80;;;;;;4900313;29;20067;-91
2023/09/29 13:24:19;;;;;;;11.80;3.88;;;25.80;41.70;;;;;;4880554;29;20068;-91
2023/09/29 13:26:47;;;;;;;11.93;3.85;;;25.80;42.50;;;;;;4902065;29;20048;-90
2023/09/29 13:29:20;;;;;;;8.25;3.83;;;25.80;43.70;;;;;;4884455;29;20048;-91
2023/09/29 13:31:47;;;;;;;10.27;4.20;;;25.80;41.60;;;;;;4900251;29;20083;-91
2023/09/29 13:34:17;;;;;;;8.27;4.30;;;25.80;43.10;;;;;;4884752;29;20060;-92
2023/09/29 13:36:45;;;;;;;8.45;4.07;;;25.80;41.00;;;;;;4900106;29;20056;-92
2023/09/29 13:39:13;;;;;;;8.25;3.85;;;25.80;41.60;;;;;;4884306;29;20519;-92
2023/09/29 13:41:40;;;;;;;9.45;3.95;;;25.80;41.40;;;;;;4899702;29;20056;-90
2023/09/29 13:44:08;;;;;;;7.70;3.40;;;25.80;42.30;;;;;;4899851;29;20120;-92
2023/09/29 13:46:35;;;;;;;8.85;4.50;;;25.70;41.60;;;;;;4883917;29;20112;-91
2023/09/29 13:49:22;;;;;;;7.22;3.70;;;25.70;41.60;;;;;;4886277;29;20060;-91
2023/09/29 13:51:49;;;;;;;9.10;4.00;;;25.70;41.70;;;;;;4884199;29;20057;-91
2023/09/29 13:54:16;;;;;;;8.75;3.97;;;25.70;42.00;;;;;;4884098;29;20056;-90
2023/09/29 13:56:45;;;;;;;14.10;4.80;;;25.70;41.50;;;;;;4884074;29;20057;-90
2023/09/29 13:59:12;;;;;;;10.70;4.22;;;25.70;41.30;;;;;;4889937;29;20065;-90
2023/09/29 14:01:42;;;;;;;10.27;4.28;;;25.70;41.80;;;;;;4885733;29;20056;-91